Time;durP1;ratioP1;P1;durP2;ratioP2;P2;SDS_P1;SDS_P2;PMS_P1;PMS_P2;Temp;Humidity;BMP_temperature;BMP_pressure;BME280_temperature;BME280_humidity;BME280_pressure;Samples;Min_cycle;Max_cycle;Signal;HPM_P1;HPM_P2
2021/05/09 00:02:12;;;;;;;3.58;2.20;;;8.50;99.90;;;;;;4895477;29;20048;-79
2021/05/09 00:04:38;;;;;;;3.35;2.15;;;8.40;99.90;;;;;;4895486;29;20096;-79
2021/05/09 00:07:06;;;;;;;2.47;2.22;;;8.40;99.90;;;;;;4895514;29;20148;-79
2021/05/09 00:09:32;;;;;;;2.40;2.13;;;8.30;99.90;;;;;;4896076;29;20084;-80
2021/05/09 00:12:05;;;;;;;2.90;2.20;;;8.30;99.90;;;;;;4881504;29;20045;-79
2021/05/09 00:14:36;;;;;;;4.15;2.65;;;8.30;99.90;;;;;;4896676;29;20041;-80
2021/05/09 00:17:07;;;;;;;3.63;2.75;;;8.20;99.90;;;;;;4897363;29;20055;-80
2021/05/09 00:19:39;;;;;;;4.85;2.38;;;8.20;99.90;;;;;;4897469;29;20055;-80
2021/05/09 00:22:10;;;;;;;2.83;2.03;;;8.20;99.90;;;;;;4897354;29;20053;-78
2021/05/09 00:24:36;;;;;;;3.47;2.33;;;8.10;99.90;;;;;;4879744;29;20492;-79
2021/05/09 00:27:07;;;;;;;2.75;2.25;;;8.20;99.90;;;;;;4894454;29;20610;-79
2021/05/09 00:29:34;;;;;;;3.65;2.70;;;8.20;99.90;;;;;;4878886;29;20048;-79
2021/05/09 00:32:05;;;;;;;3.92;2.65;;;8.20;99.90;;;;;;4894187;29;20131;-78
2021/05/09 00:34:31;;;;;;;4.60;2.47;;;8.30;99.90;;;;;;4878727;29;20131;-77
2021/05/09 00:36:58;;;;;;;4.18;2.83;;;8.20;99.90;;;;;;4880132;29;20147;-77
2021/05/09 00:39:24;;;;;;;3.03;2.45;;;8.30;99.90;;;;;;4882108;29;20124;-78
2021/05/09 00:42:03;;;;;;;3.72;2.78;;;8.30;99.90;;;;;;4897937;29;20131;-78
2021/05/09 00:44:29;;;;;;;3.92;2.63;;;8.30;99.90;;;;;;4884111;29;20088;-78
2021/05/09 00:46:56;;;;;;;4.32;3.08;;;8.30;99.90;;;;;;4899882;29;20105;-78
2021/05/09 00:49:22;;;;;;;2.88;1.95;;;8.30;99.90;;;;;;4899160;29;20446;-78
2021/05/09 00:51:51;;;;;;;2.55;2.17;;;8.30;99.90;;;;;;4899768;29;20041;-78
2021/05/09 00:54:23;;;;;;;2.63;2.30;;;8.30;99.90;;;;;;4899977;29;20049;-78
2021/05/09 00:56:58;;;;;;;2.50;1.95;;;8.30;99.90;;;;;;4900543;29;20108;-78
2021/05/09 00:59:33;;;;;;;2.70;2.08;;;8.30;99.90;;;;;;4899060;29;20041;-78
2021/05/09 01:02:00;;;;;;;2.40;1.60;;;8.30;99.90;;;;;;4899142;29;20052;-78
2021/05/09 01:04:32;;;;;;;2.03;1.70;;;8.30;99.90;;;;;;4883991;29;20049;-78
2021/05/09 01:07:04;;;;;;;3.03;2.40;;;8.30;99.90;;;;;;4898972;29;20053;-78
2021/05/09 01:09:35;;;;;;;4.85;2.80;;;8.30;99.90;;;;;;4899152;29;20055;-78
2021/05/09 01:12:10;;;;;;;4.97;3.22;;;8.30;99.90;;;;;;4898903;29;20508;-78
2021/05/09 01:14:43;;;;;;;5.60;3.53;;;8.30;99.90;;;;;;4899021;29;20047;-78
2021/05/09 01:17:14;;;;;;;6.55;3.55;;;8.20;99.90;;;;;;4899304;29;20055;-78
2021/05/09 01:19:41;;;;;;;5.50;3.78;;;8.10;99.90;;;;;;4883629;29;20062;-78
2021/05/09 01:22:13;;;;;;;6.50;3.60;;;8.00;99.90;;;;;;4899715;29;20147;-78
2021/05/09 01:24:39;;;;;;;4.60;3.80;;;8.10;99.90;;;;;;4899837;29;20049;-78
2021/05/09 01:27:11;;;;;;;5.72;4.10;;;8.00;99.90;;;;;;4899966;29;20472;-78
2021/05/09 01:29:37;;;;;;;5.40;3.85;;;8.00;99.90;;;;;;4899996;29;20053;-78
2021/05/09 01:32:08;;;;;;;6.28;3.72;;;7.90;99.90;;;;;;4899280;29;20036;-78
2021/05/09 01:34:36;;;;;;;4.82;3.60;;;7.90;99.90;;;;;;4899274;29;20048;-78
2021/05/09 01:37:04;;;;;;;5.97;4.15;;;7.80;99.90;;;;;;4900251;29;20135;-78
2021/05/09 01:39:31;;;;;;;5.75;4.00;;;7.80;99.90;;;;;;4900167;29;20055;-78
2021/05/09 01:42:03;;;;;;;7.07;4.65;;;7.70;99.90;;;;;;4900384;29;20120;-78
2021/05/09 01:44:32;;;;;;;5.30;3.90;;;7.70;99.90;;;;;;4900649;29;20072;-78
2021/05/09 01:46:59;;;;;;;6.95;3.95;;;7.70;99.90;;;;;;4885833;29;20044;-78
2021/05/09 01:49:25;;;;;;;4.10;3.53;;;7.60;99.90;;;;;;4899791;29;20081;-78
2021/05/09 01:51:56;;;;;;;5.88;3.85;;;7.60;99.90;;;;;;4900409;29;20083;-78
2021/05/09 01:54:23;;;;;;;8.40;3.58;;;7.60;99.90;;;;;;4900390;29;20131;-78
2021/05/09 01:56:55;;;;;;;4.45;3.30;;;7.50;99.90;;;;;;4900788;29;20094;-78
2021/05/09 01:59:25;;;;;;;3.67;3.30;;;7.50;99.90;;;;;;4900399;29;20045;-78
2021/05/09 02:01:51;;;;;;;4.72;3.38;;;7.40;99.90;;;;;;4885871;29;20082;-78
2021/05/09 02:04:32;;;;;;;4.28;3.17;;;7.40;99.90;;;;;;4887846;29;20116;-78
2021/05/09 02:07:07;;;;;;;7.55;3.35;;;7.40;99.90;;;;;;4901195;29;20048;-78
2021/05/09 02:09:36;;;;;;;4.55;2.95;;;7.30;99.90;;;;;;4900553;29;20048;-78
2021/05/09 02:12:04;;;;;;;9.70;3.30;;;7.30;99.90;;;;;;4899742;29;20048;-78
2021/05/09 02:14:42;;;;;;;5.32;2.40;;;7.10;99.90;;;;;;4887217;29;20051;-78
2021/05/09 02:17:10;;;;;;;2.70;2.25;;;7.10;99.90;;;;;;4900467;29;20096;-78
2021/05/09 02:19:39;;;;;;;3.90;2.45;;;7.00;99.90;;;;;;4884446;29;20045;-78
2021/05/09 02:22:08;;;;;;;3.30;1.80;;;7.10;99.90;;;;;;4883502;29;20048;-78
2021/05/09 02:24:41;;;;;;;3.30;1.80;;;7.10;99.90;;;;;;4883844;29;20041;-78
2021/05/09 02:27:13;;;;;;;1.90;1.50;;;7.00;99.90;;;;;;4898711;29;20048;-78
2021/05/09 02:29:44;;;;;;;4.85;2.33;;;7.10;99.90;;;;;;4899773;29;20069;-78
2021/05/09 02:32:11;;;;;;;2.42;1.80;;;7.10;99.90;;;;;;4884978;29;20049;-78
2021/05/09 02:34:38;;;;;;;3.15;1.60;;;7.20;99.90;;;;;;4901751;29;20088;-78
2021/05/09 02:37:10;;;;;;;2.72;1.90;;;7.20;99.90;;;;;;4899439;29;20041;-78
2021/05/09 02:39:36;;;;;;;2.35;1.85;;;7.20;99.90;;;;;;4901012;29;20053;-78
2021/05/09 02:42:03;;;;;;;3.10;1.80;;;7.20;99.90;;;;;;4885570;29;20072;-78
2021/05/09 02:44:29;;;;;;;2.53;1.73;;;7.10;99.90;;;;;;4900247;29;20048;-78
2021/05/09 02:46:56;;;;;;;2.05;1.83;;;7.10;99.90;;;;;;4883985;29;20079;-78
2021/05/09 02:49:22;;;;;;;2.65;1.88;;;7.10;99.90;;;;;;4898589;29;20184;-78
2021/05/09 02:51:54;;;;;;;4.00;2.47;;;7.10;99.90;;;;;;4897074;29;20503;-78
2021/05/09 02:54:26;;;;;;;3.00;2.33;;;7.10;99.90;;;;;;4896096;29;20045;-78
2021/05/09 02:56:53;;;;;;;2.20;1.80;;;7.00;99.90;;;;;;4896279;29;20526;-78
2021/05/09 02:59:24;;;;;;;3.05;2.15;;;7.00;99.90;;;;;;4895790;29;20063;-78
2021/05/09 03:01:58;;;;;;;5.65;2.67;;;7.00;99.90;;;;;;4880781;29;20044;-78
2021/05/09 03:04:25;;;;;;;4.45;2.47;;;7.00;99.90;;;;;;4881150;29;20051;-78
2021/05/09 03:06:57;;;;;;;3.83;2.30;;;7.00;99.90;;;;;;4896948;29;20045;-78
2021/05/09 03:09:23;;;;;;;3.05;2.30;;;7.00;99.90;;;;;;4880263;29;20055;-78
2021/05/09 03:11:50;;;;;;;3.50;2.42;;;7.00;99.90;;;;;;4895563;29;20084;-78
2021/05/09 03:14:16;;;;;;;2.72;2.17;;;7.00;99.90;;;;;;4879723;29;20045;-78
2021/05/09 03:16:43;;;;;;;3.00;2.58;;;6.90;99.90;;;;;;4880072;29;20045;-77
2021/05/09 03:19:10;;;;;;;3.63;2.70;;;6.90;99.90;;;;;;4895317;29;20496;-76
2021/05/09 03:21:41;;;;;;;4.03;2.42;;;6.90;99.90;;;;;;4880320;29;20136;-76
2021/05/09 03:24:10;;;;;;;4.78;2.28;;;6.90;99.90;;;;;;4895353;29;20151;-75
2021/05/09 03:26:36;;;;;;;4.25;2.83;;;6.90;99.90;;;;;;4894921;29;20071;-75
2021/05/09 03:29:04;;;;;;;5.10;2.10;;;6.90;99.90;;;;;;4879127;29;20492;-75
2021/05/09 03:31:32;;;;;;;3.70;2.08;;;6.90;99.90;;;;;;4895425;29;20048;-75
2021/05/09 03:34:03;;;;;;;3.75;2.50;;;6.90;99.90;;;;;;4894613;29;20135;-77
2021/05/09 03:36:30;;;;;;;6.82;2.47;;;6.90;99.90;;;;;;4894612;29;20124;-76
2021/05/09 03:39:01;;;;;;;2.85;1.83;;;6.80;99.90;;;;;;4894354;29;20043;-75
2021/05/09 03:41:27;;;;;;;3.88;1.88;;;6.80;99.90;;;;;;4895562;29;20052;-74
2021/05/09 03:43:53;;;;;;;2.63;1.60;;;6.70;99.90;;;;;;4878997;29;20147;-74
2021/05/09 03:46:25;;;;;;;2.38;1.85;;;6.70;99.90;;;;;;4894455;29;20127;-75
2021/05/09 03:48:56;;;;;;;1.58;1.45;;;6.70;99.90;;;;;;4894752;29;20036;-75
2021/05/09 03:51:27;;;;;;;2.33;1.63;;;6.70;99.90;;;;;;4894291;29;20125;-75
2021/05/09 03:53:58;;;;;;;2.03;1.55;;;6.70;99.90;;;;;;4894777;29;20059;-74
2021/05/09 03:56:29;;;;;;;1.92;1.50;;;6.60;99.90;;;;;;4894637;29;20045;-74
2021/05/09 03:58:56;;;;;;;3.75;1.90;;;6.60;99.90;;;;;;4894490;29;20068;-75
2021/05/09 04:01:27;;;;;;;2.10;1.67;;;6.60;99.90;;;;;;4894299;29;20053;-77
2021/05/09 04:03:53;;;;;;;3.30;1.80;;;6.50;99.90;;;;;;4894641;29;20571;-77
2021/05/09 04:06:20;;;;;;;2.97;2.25;;;6.50;99.90;;;;;;4894418;29;20076;-76
2021/05/09 04:08:51;;;;;;;3.40;1.90;;;6.50;99.90;;;;;;4895527;29;20611;-75
2021/05/09 04:11:18;;;;;;;3.83;2.15;;;6.40;99.90;;;;;;4894655;29;20073;-74
2021/05/09 04:13:49;;;;;;;2.65;2.00;;;6.50;99.90;;;;;;4882628;29;20408;-75
2021/05/09 04:16:20;;;;;;;3.80;2.53;;;6.50;99.90;;;;;;4898004;29;20595;-76
2021/05/09 04:18:51;;;;;;;4.05;2.08;;;6.50;99.90;;;;;;4897990;29;20415;-74
2021/05/09 04:21:22;;;;;;;2.78;2.03;;;6.50;99.90;;;;;;4897815;29;20488;-76
2021/05/09 04:23:48;;;;;;;2.25;1.60;;;6.50;99.90;;;;;;4899503;29;20072;-75
2021/05/09 04:26:15;;;;;;;2.55;1.75;;;6.50;99.90;;;;;;4898172;29;20156;-75
2021/05/09 04:28:46;;;;;;;3.55;1.80;;;6.50;99.90;;;;;;4897737;29;20151;-74
2021/05/09 04:31:12;;;;;;;2.25;1.63;;;6.50;99.90;;;;;;4882049;29;20076;-74
2021/05/09 04:33:44;;;;;;;2.30;1.63;;;6.40;99.90;;;;;;4883120;29;20512;-75
2021/05/09 04:36:10;;;;;;;3.63;1.30;;;6.50;99.90;;;;;;4897842;29;20104;-74
2021/05/09 04:38:41;;;;;;;2.63;1.85;;;6.40;99.90;;;;;;4897749;29;20496;-76
2021/05/09 04:41:13;;;;;;;2.42;1.70;;;6.50;99.90;;;;;;4898844;29;20054;-75
2021/05/09 04:43:39;;;;;;;1.92;1.40;;;6.50;99.90;;;;;;4897672;29;20074;-74
2021/05/09 04:46:05;;;;;;;2.92;1.30;;;6.50;99.90;;;;;;4897617;29;20123;-77
2021/05/09 04:48:32;;;;;;;2.28;2.08;;;6.50;99.90;;;;;;4897461;29;20587;-78
2021/05/09 04:51:03;;;;;;;3.00;1.50;;;6.50;99.90;;;;;;4897350;29;20087;-75
2021/05/09 04:53:36;;;;;;;2.20;1.70;;;6.50;99.90;;;;;;4897531;29;20143;-75
2021/05/09 04:56:08;;;;;;;2.65;1.70;;;6.60;99.90;;;;;;4897432;29;20064;-75
2021/05/09 04:58:41;;;;;;;3.97;1.70;;;6.60;99.90;;;;;;4897289;29;20048;-75
2021/05/09 05:01:13;;;;;;;1.67;1.47;;;6.60;99.90;;;;;;4897768;29;20043;-75
2021/05/09 05:03:44;;;;;;;2.78;1.30;;;6.70;99.90;;;;;;4898100;29;20135;-74
2021/05/09 05:06:16;;;;;;;1.50;1.23;;;6.70;99.90;;;;;;4898102;29;20147;-74
2021/05/09 05:08:47;;;;;;;3.33;1.73;;;6.80;99.90;;;;;;4897778;29;20048;-76
2021/05/09 05:11:13;;;;;;;2.08;1.63;;;6.80;99.90;;;;;;4898684;29;20140;-75
2021/05/09 05:13:44;;;;;;;3.38;2.40;;;6.90;99.90;;;;;;4899051;29;20407;-74
2021/05/09 05:16:16;;;;;;;6.05;4.38;;;6.90;99.90;;;;;;4897714;29;20048;-75
2021/05/09 05:18:47;;;;;;;5.18;3.33;;;7.00;99.90;;;;;;4897523;29;20139;-74
2021/05/09 05:21:18;;;;;;;6.93;4.00;;;7.10;99.90;;;;;;4898347;29;20044;-75
2021/05/09 05:23:44;;;;;;;7.32;4.75;;;7.10;99.90;;;;;;4896340;29;20478;-74
2021/05/09 05:26:15;;;;;;;7.50;4.75;;;7.20;99.90;;;;;;4897381;29;20044;-74
2021/05/09 05:28:42;;;;;;;8.93;4.15;;;7.30;99.90;;;;;;4898470;29;20571;-74
2021/05/09 05:31:08;;;;;;;8.63;4.78;;;7.30;99.90;;;;;;4897038;29;20056;-74
2021/05/09 05:33:39;;;;;;;5.97;4.55;;;7.30;99.90;;;;;;4898484;29;20047;-75
2021/05/09 05:36:10;;;;;;;7.60;6.22;;;7.40;99.90;;;;;;4882404;29;20072;-75
2021/05/09 05:38:37;;;;;;;6.22;5.55;;;7.40;99.90;;;;;;4896477;29;20053;-77
2021/05/09 05:41:09;;;;;;;7.68;4.80;;;7.50;99.90;;;;;;4890200;29;20044;-75
2021/05/09 05:43:40;;;;;;;4.57;4.00;;;7.50;99.90;;;;;;4920075;29;20079;-74
2021/05/09 05:46:06;;;;;;;4.90;4.40;;;7.50;99.90;;;;;;4915185;29;20475;-74
2021/05/09 05:48:32;;;;;;;8.25;7.55;;;7.60;99.90;;;;;;4916477;29;20123;-75
2021/05/09 05:51:04;;;;;;;7.78;7.07;;;7.70;99.90;;;;;;4933125;29;20493;-75
2021/05/09 05:53:35;;;;;;;4.75;4.35;;;7.70;99.90;;;;;;4919029;29;20131;-75
2021/05/09 05:56:06;;;;;;;10.32;7.72;;;7.80;99.90;;;;;;4935319;29;20126;-75
2021/05/09 05:58:38;;;;;;;7.32;5.63;;;7.80;99.90;;;;;;4933915;29;20131;-75
2021/05/09 06:01:04;;;;;;;6.88;5.90;;;7.90;99.90;;;;;;4925563;29;20450;-75
2021/05/09 06:03:35;;;;;;;7.20;5.13;;;8.00;99.90;;;;;;4896531;29;20050;-75
2021/05/09 06:06:01;;;;;;;6.90;4.50;;;8.00;99.90;;;;;;4880609;29;20151;-75
2021/05/09 06:08:28;;;;;;;6.90;5.22;;;8.10;99.90;;;;;;4880359;29;20067;-75
2021/05/09 06:10:59;;;;;;;5.28;4.78;;;8.20;99.90;;;;;;4880981;29;20151;-75
2021/05/09 06:13:27;;;;;;;5.80;4.75;;;8.20;99.90;;;;;;4896758;29;20477;-75
2021/05/09 06:15:59;;;;;;;6.07;4.82;;;8.40;99.90;;;;;;4896198;29;20045;-75
2021/05/09 06:18:25;;;;;;;5.40;4.13;;;8.40;99.90;;;;;;4896869;29;20496;-74
2021/05/09 06:20:56;;;;;;;4.32;3.75;;;8.50;99.90;;;;;;4895680;29;20551;-75
2021/05/09 06:23:28;;;;;;;4.90;3.80;;;8.60;99.90;;;;;;4894571;29;20058;-75
2021/05/09 06:25:59;;;;;;;8.07;4.30;;;8.70;99.90;;;;;;4881069;29;20143;-75
2021/05/09 06:28:25;;;;;;;8.02;4.07;;;8.80;99.90;;;;;;4896929;29;20123;-75
2021/05/09 06:30:57;;;;;;;5.90;4.65;;;8.90;99.90;;;;;;4895596;29;20135;-75
2021/05/09 06:33:28;;;;;;;6.70;4.25;;;9.00;99.90;;;;;;4895842;29;20500;-75
2021/05/09 06:35:55;;;;;;;5.07;4.43;;;9.10;99.90;;;;;;4896804;29;20141;-75
2021/05/09 06:38:22;;;;;;;4.82;3.88;;;9.30;99.90;;;;;;4895579;29;20124;-75
2021/05/09 06:40:54;;;;;;;6.93;5.38;;;9.40;99.90;;;;;;4883722;29;20401;-75
2021/05/09 06:43:21;;;;;;;5.35;4.45;;;9.50;99.90;;;;;;4895579;29;20563;-74
2021/05/09 06:45:53;;;;;;;6.05;4.55;;;9.60;99.90;;;;;;4895199;29;20050;-74
2021/05/09 06:48:24;;;;;;;6.00;4.10;;;9.80;99.90;;;;;;4895269;29;20055;-75
2021/05/09 06:50:57;;;;;;;5.38;4.05;;;9.90;99.90;;;;;;4895984;29;20051;-77
2021/05/09 06:53:28;;;;;;;5.55;4.10;;;10.10;99.90;;;;;;4895366;29;20032;-75
2021/05/09 06:55:59;;;;;;;5.20;3.95;;;10.20;99.90;;;;;;4896459;29;20044;-74
2021/05/09 06:58:26;;;;;;;5.05;3.95;;;10.30;99.90;;;;;;4894802;29;20048;-76
2021/05/09 07:00:52;;;;;;;4.65;3.85;;;10.40;99.90;;;;;;4894152;29;20059;-77
2021/05/09 07:03:18;;;;;;;4.82;4.15;;;10.50;99.90;;;;;;4894610;29;20091;-76
2021/05/09 07:05:44;;;;;;;5.78;4.07;;;10.60;99.90;;;;;;4894686;29;20131;-76
2021/05/09 07:08:16;;;;;;;4.43;3.85;;;10.80;99.90;;;;;;4894187;29;20392;-75
2021/05/09 07:10:47;;;;;;;4.90;3.67;;;11.00;99.90;;;;;;4894335;29;20045;-75
2021/05/09 07:13:13;;;;;;;4.68;3.58;;;11.20;99.90;;;;;;4878852;29;20052;-75
2021/05/09 07:15:45;;;;;;;4.63;3.92;;;11.30;99.90;;;;;;4879648;29;20041;-75
2021/05/09 07:18:14;;;;;;;4.03;3.63;;;11.50;99.90;;;;;;4894372;29;20111;-75
2021/05/09 07:20:50;;;;;;;4.90;4.00;;;11.60;99.90;;;;;;4894166;29;20047;-77
2021/05/09 07:23:21;;;;;;;5.57;3.92;;;11.80;99.90;;;;;;4895759;29;20060;-75
2021/05/09 07:25:53;;;;;;;4.10;3.65;;;11.90;99.90;;;;;;4894429;29;20148;-74
2021/05/09 07:28:25;;;;;;;4.60;4.13;;;12.10;99.90;;;;;;4895353;29;20052;-75
2021/05/09 07:30:56;;;;;;;4.75;3.97;;;12.20;99.90;;;;;;4894133;29;20044;-73
2021/05/09 07:33:27;;;;;;;4.28;3.80;;;12.40;99.90;;;;;;4879648;29;20045;-72
2021/05/09 07:35:58;;;;;;;4.07;3.67;;;12.60;99.90;;;;;;4894517;29;20055;-73
2021/05/09 07:38:30;;;;;;;5.60;3.63;;;12.70;99.90;;;;;;4895769;29;20385;-73
2021/05/09 07:41:02;;;;;;;3.50;3.20;;;12.80;99.90;;;;;;4879316;29;20051;-72
2021/05/09 07:43:33;;;;;;;2.60;2.30;;;13.00;99.90;;;;;;4893917;29;20088;-73
2021/05/09 07:46:00;;;;;;;3.83;2.25;;;13.20;99.90;;;;;;4878552;29;20076;-72
2021/05/09 07:48:31;;;;;;;3.00;1.95;;;13.40;99.90;;;;;;4899540;29;20132;-72
2021/05/09 07:51:02;;;;;;;3.42;2.50;;;13.50;99.90;;;;;;4882703;29;20068;-73
2021/05/09 07:53:28;;;;;;;3.75;2.42;;;13.80;99.90;;;;;;4898015;29;20131;-75
2021/05/09 07:56:00;;;;;;;2.17;1.98;;;13.90;99.90;;;;;;4898096;29;20060;-74
2021/05/09 07:58:26;;;;;;;2.75;1.88;;;14.10;99.90;;;;;;4899438;29;20076;-74
2021/05/09 08:01:02;;;;;;;3.83;2.20;;;14.30;99.90;;;;;;4883291;29;20488;-76
2021/05/09 08:03:35;;;;;;;2.55;2.13;;;14.50;99.90;;;;;;4898586;29;20045;-75
2021/05/09 08:06:06;;;;;;;2.30;1.73;;;14.70;99.90;;;;;;4898696;29;20532;-75
2021/05/09 08:08:33;;;;;;;1.58;1.42;;;14.90;99.90;;;;;;4898593;29;20500;-75
2021/05/09 08:11:00;;;;;;;2.88;1.50;;;15.10;99.90;;;;;;4899758;29;20238;-74
2021/05/09 08:13:26;;;;;;;2.17;1.60;;;15.20;99.90;;;;;;4898481;29;20040;-77
2021/05/09 08:15:52;;;;;;;2.45;1.92;;;15.30;99.90;;;;;;4898400;29;20147;-75
2021/05/09 08:18:25;;;;;;;2.85;1.65;;;15.50;99.90;;;;;;4898994;29;20405;-75
2021/05/09 08:20:57;;;;;;;3.50;1.70;;;15.60;99.90;;;;;;4898222;29;20119;-77
2021/05/09 08:23:29;;;;;;;1.75;1.30;;;15.80;99.90;;;;;;4898801;29;20080;-77
2021/05/09 08:26:00;;;;;;;2.08;1.63;;;16.00;99.90;;;;;;4898012;29;20144;-77
2021/05/09 08:28:26;;;;;;;1.67;1.33;;;16.20;99.90;;;;;;4897873;29;20040;-77
2021/05/09 08:30:52;;;;;;;2.10;1.65;;;16.40;99.90;;;;;;4897157;29;20595;-77
2021/05/09 08:33:19;;;;;;;2.72;1.67;;;16.60;99.90;;;;;;4897707;29;20574;-77
2021/05/09 08:35:50;;;;;;;2.35;1.40;;;16.70;99.90;;;;;;4898051;29;20048;-77
2021/05/09 08:38:16;;;;;;;1.55;1.45;;;16.80;99.90;;;;;;4896864;29;20101;-77
2021/05/09 08:40:47;;;;;;;2.38;1.27;;;16.90;99.90;;;;;;4881813;29;20496;-77
2021/05/09 08:43:13;;;;;;;1.35;1.15;;;17.00;99.90;;;;;;4896933;29;20080;-77
2021/05/09 08:45:45;;;;;;;3.55;1.35;;;17.20;99.90;;;;;;4896870;29;20475;-76
2021/05/09 08:48:19;;;;;;;8.40;3.60;;;17.40;99.90;;;;;;4881627;29;20618;-76
2021/05/09 08:50:47;;;;;;;4.13;1.30;;;17.50;99.90;;;;;;4896883;29;20147;-77
2021/05/09 08:53:17;;;;;;;1.67;1.20;;;17.70;99.90;;;;;;4896327;29;20135;-77
2021/05/09 08:55:49;;;;;;;2.10;1.50;;;17.80;99.90;;;;;;4896390;29;20040;-83
2021/05/09 08:58:15;;;;;;;2.17;1.67;;;18.00;99.90;;;;;;4901442;29;20080;-81
2021/05/09 09:00:47;;;;;;;1.75;1.20;;;18.20;99.90;;;;;;4886621;29;20456;-80
2021/05/09 09:03:14;;;;;;;2.60;1.65;;;18.30;99.90;;;;;;4902785;29;20500;-82
2021/05/09 09:05:44;;;;;;;3.47;2.38;;;18.50;99.90;;;;;;4886653;29;20049;-83
2021/05/09 09:08:12;;;;;;;2.65;1.48;;;18.60;99.90;;;;;;4900421;29;20141;-81
2021/05/09 09:10:52;;;;;;;3.22;2.47;;;18.70;99.90;;;;;;4899544;29;20060;-79
2021/05/09 09:13:22;;;;;;;3.10;1.70;;;18.80;99.90;;;;;;4882655;29;20476;-78
2021/05/09 09:15:57;;;;;;;3.40;1.73;;;18.90;99.90;;;;;;4883266;29;20040;-79
2021/05/09 09:18:40;;;;;;;1.90;1.27;;;18.90;99.90;;;;;;4888104;29;20068;-77
2021/05/09 09:21:30;;;;;;;2.85;1.33;;;19.10;99.90;;;;;;4903188;29;20045;-77
2021/05/09 09:24:00;;;;;;;4.18;1.08;;;19.20;99.90;;;;;;4902866;29;20045;-78
2021/05/09 09:26:39;;;;;;;1.83;1.40;;;19.40;99.90;;;;;;4895672;29;20044;-78
2021/05/09 09:29:38;;;;;;;1.65;1.20;;;19.50;99.90;;;;;;4912336;29;20170;-79
2021/05/09 09:32:10;;;;;;;;;;;19.70;99.90;;;;;;4888901;29;20045;-78
2021/05/09 09:34:45;;;;;;;2.92;1.20;;;19.90;99.90;;;;;;4895012;29;20022;-77
2021/05/09 09:37:17;;;;;;;2.08;1.35;;;20.00;99.90;;;;;;4900145;29;20123;-77
2021/05/09 09:39:57;;;;;;;2.47;1.25;;;20.20;99.90;;;;;;4902441;29;20088;-78
2021/05/09 09:42:38;;;;;;;1.55;1.30;;;20.40;99.90;;;;;;4904107;29;20144;-81
2021/05/09 09:45:24;;;;;;;1.55;1.45;;;20.50;99.90;;;;;;4904474;29;20124;-77
2021/05/09 09:48:02;;;;;;;5.38;2.72;;;20.70;99.90;;;;;;4894553;29;20044;-76
2021/05/09 09:50:41;;;;;;;2.38;1.73;;;20.90;99.90;;;;;;4913790;29;20482;-78
2021/05/09 09:53:38;;;;;;;2.20;1.38;;;21.10;99.90;;;;;;4916760;29;20036;-77
2021/05/09 09:56:18;;;;;;;1.63;1.10;;;21.30;99.90;;;;;;4900304;29;20131;-77
2021/05/09 09:58:46;;;;;;;2.53;1.00;;;21.50;99.90;;;;;;4899470;29;20072;-77
2021/05/09 10:01:40;;;;;;;2.67;1.30;;;21.60;99.90;;;;;;4899252;29;20044;-75
2021/05/09 10:04:13;;;;;;;4.05;1.23;;;21.80;99.90;;;;;;4899313;29;20052;-77
2021/05/09 10:06:44;;;;;;;3.40;1.75;;;21.90;99.90;;;;;;4908255;29;20131;-76
2021/05/09 10:09:16;;;;;;;2.38;1.98;;;22.20;99.90;;;;;;4880878;29;20151;-77
2021/05/09 10:11:47;;;;;;;1.85;1.50;;;22.40;99.90;;;;;;4896199;29;20138;-76
2021/05/09 10:14:18;;;;;;;1.20;1.10;;;22.50;97.80;;;;;;4896018;29;20041;-77
2021/05/09 10:16:48;;;;;;;1.10;1.00;;;22.70;91.60;;;;;;4899706;29;20040;-80
2021/05/09 10:19:23;;;;;;;1.27;1.00;;;23.00;80.10;;;;;;4883307;29;20045;-80
2021/05/09 10:21:56;;;;;;;1.10;1.00;;;23.20;76.80;;;;;;4898126;29;20045;-80
2021/05/09 10:24:36;;;;;;;2.30;1.23;;;23.30;71.40;;;;;;4899115;29;20056;-81
2021/05/09 10:27:10;;;;;;;1.27;1.00;;;23.60;67.90;;;;;;4898732;29;20041;-82
2021/05/09 10:29:37;;;;;;;1.20;1.00;;;23.80;66.70;;;;;;4898297;29;20052;-81
2021/05/09 10:32:29;;;;;;;2.23;1.10;;;23.90;66.20;;;;;;4883882;29;20127;-81
2021/05/09 10:35:01;;;;;;;1.90;1.20;;;24.10;66.10;;;;;;4898506;29;20419;-81
2021/05/09 10:37:39;;;;;;;1.15;1.00;;;24.20;66.90;;;;;;4883660;29;20135;-81
2021/05/09 10:40:23;;;;;;;2.67;1.02;;;24.20;58.90;;;;;;4899029;29;20048;-81
2021/05/09 10:43:11;;;;;;;2.13;1.10;;;24.30;62.50;;;;;;4897900;29;20095;-81
2021/05/09 10:45:42;;;;;;;2.08;1.30;;;24.40;62.60;;;;;;4898141;29;20045;-81
2021/05/09 10:48:14;;;;;;;1.52;1.20;;;24.50;60.60;;;;;;4898066;29;20571;-81
2021/05/09 10:50:59;;;;;;;2.33;1.40;;;24.60;55.90;;;;;;4898637;29;20048;-80
2021/05/09 10:53:35;;;;;;;1.73;0.95;;;24.70;55.30;;;;;;4882588;29;20045;-81
2021/05/09 10:56:03;;;;;;;1.33;0.90;;;24.80;51.80;;;;;;4898225;29;20143;-81
2021/05/09 10:58:48;;;;;;;1.38;0.82;;;24.80;48.50;;;;;;4899615;29;20045;-81
2021/05/09 11:01:19;;;;;;;1.45;1.02;;;24.80;46.40;;;;;;4898007;29;20136;-81
2021/05/09 11:03:55;;;;;;;1.40;0.93;;;24.90;49.30;;;;;;4898003;29;20148;-81
2021/05/09 11:06:37;;;;;;;4.40;2.53;;;24.90;52.70;;;;;;4897987;29;20151;-81
2021/05/09 11:09:05;;;;;;;1.50;1.20;;;25.00;49.80;;;;;;4897683;29;20058;-81
2021/05/09 11:11:31;;;;;;;2.13;1.15;;;25.10;51.70;;;;;;4897999;29;20084;-81
2021/05/09 11:14:00;;;;;;;1.30;1.20;;;25.20;53.20;;;;;;4882822;29;20496;-81
2021/05/09 11:16:38;;;;;;;2.25;1.20;;;25.20;52.90;;;;;;4883695;29;20040;-81
2021/05/09 11:19:11;;;;;;;1.30;1.00;;;25.30;48.60;;;;;;4898539;29;20127;-81
2021/05/09 11:21:44;;;;;;;3.03;1.02;;;25.30;50.60;;;;;;4896804;29;20130;-81
2021/05/09 11:24:12;;;;;;;1.38;1.02;;;25.30;46.40;;;;;;4882731;29;20108;-81
2021/05/09 11:26:45;;;;;;;3.35;1.13;;;25.30;47.50;;;;;;4898458;29;20051;-81
2021/05/09 11:29:19;;;;;;;1.10;0.90;;;25.40;48.80;;;;;;4897767;29;20522;-81
2021/05/09 11:31:55;;;;;;;1.35;0.93;;;25.50;47.60;;;;;;4897907;29;20147;-81
2021/05/09 11:34:27;;;;;;;4.78;1.10;;;25.60;50.00;;;;;;4897568;29;20052;-81
2021/05/09 11:36:57;;;;;;;2.72;1.50;;;25.70;48.70;;;;;;4897853;29;20475;-81
2021/05/09 11:39:33;;;;;;;1.45;1.23;;;25.80;49.20;;;;;;4897443;29;20045;-81
2021/05/09 11:42:15;;;;;;;1.20;1.10;;;25.90;47.40;;;;;;4897711;29;20075;-81
2021/05/09 11:44:48;;;;;;;1.35;1.00;;;26.00;46.90;;;;;;4896866;29;20052;-81
2021/05/09 11:47:15;;;;;;;1.77;1.17;;;26.10;46.70;;;;;;4896850;29;20068;-80
2021/05/09 11:49:43;;;;;;;1.50;1.00;;;26.10;44.30;;;;;;4896254;29;20521;-80
2021/05/09 11:52:20;;;;;;;1.30;0.95;;;26.30;43.90;;;;;;4897294;29;20574;-80
2021/05/09 11:54:50;;;;;;;1.30;0.90;;;26.30;44.70;;;;;;4896315;29;20048;-80
2021/05/09 11:57:24;;;;;;;1.85;1.10;;;26.40;45.50;;;;;;4896188;29;20143;-80
2021/05/09 12:00:01;;;;;;;1.10;1.00;;;26.60;43.60;;;;;;4895402;29;20045;-81
2021/05/09 12:02:42;;;;;;;1.45;0.80;;;26.70;43.20;;;;;;4881352;29;20052;-80
2021/05/09 12:05:15;;;;;;;1.80;1.00;;;26.80;43.80;;;;;;4896167;29;20132;-81
2021/05/09 12:07:43;;;;;;;1.27;0.80;;;26.90;40.00;;;;;;4896460;29;20080;-81
2021/05/09 12:10:16;;;;;;;1.73;0.93;;;26.90;40.50;;;;;;4896545;29;20526;-80
2021/05/09 12:12:44;;;;;;;1.40;0.90;;;27.00;38.70;;;;;;4896109;29;20072;-80
2021/05/09 12:15:17;;;;;;;;;;;27.00;38.70;;;;;;4896480;29;20047;-80
2021/05/09 12:17:56;;;;;;;1.35;0.90;;;27.20;39.80;;;;;;4896131;29;19927;-80
2021/05/09 12:20:33;;;;;;;1.42;0.70;;;27.20;37.90;;;;;;4896461;29;20048;-81
2021/05/09 12:23:04;;;;;;;0.93;0.63;;;27.30;38.00;;;;;;4880039;29;20484;-80
2021/05/09 12:25:42;;;;;;;1.67;1.00;;;27.30;36.40;;;;;;4893499;29;20104;-79
2021/05/09 12:28:15;;;;;;;1.85;0.80;;;27.40;38.30;;;;;;4893486;29;20158;-80
2021/05/09 12:30:48;;;;;;;5.18;1.00;;;27.50;40.80;;;;;;4879097;29;20080;-79
2021/05/09 12:33:47;;;;;;;1.90;0.80;;;27.60;38.40;;;;;;4894543;29;20053;-77
2021/05/09 12:36:19;;;;;;;1.70;0.73;;;27.70;36.00;;;;;;4880056;29;20139;-78
2021/05/09 12:38:50;;;;;;;1.55;0.88;;;27.80;37.80;;;;;;4884566;29;20122;-78
2021/05/09 12:41:17;;;;;;;1.02;0.73;;;27.80;34.20;;;;;;4899968;29;20143;-78
2021/05/09 12:43:44;;;;;;;0.90;0.80;;;27.70;34.30;;;;;;4901136;29;20059;-77
2021/05/09 12:46:40;;;;;;;0.80;0.70;;;27.80;35.60;;;;;;4885986;29;20048;-77
2021/05/09 12:49:29;;;;;;;1.08;0.80;;;27.90;36.00;;;;;;4900418;29;20064;-78
2021/05/09 12:51:55;;;;;;;1.58;0.80;;;28.00;37.50;;;;;;4899444;29;20100;-76
2021/05/09 12:54:43;;;;;;;1.00;0.80;;;28.10;37.90;;;;;;4898102;29;20068;-77
2021/05/09 12:57:15;;;;;;;1.67;0.80;;;28.30;36.50;;;;;;4897892;29;20111;-77
2021/05/09 12:59:48;;;;;;;0.82;0.60;;;28.30;35.00;;;;;;4881772;29;20599;-77
2021/05/09 13:02:21;;;;;;;0.90;0.70;;;28.40;35.50;;;;;;4897717;29;20488;-77
2021/05/09 13:04:51;;;;;;;1.45;0.73;;;28.50;34.70;;;;;;4897682;29;20132;-77
2021/05/09 13:07:19;;;;;;;1.67;0.70;;;28.60;35.20;;;;;;4882076;29;20523;-77
2021/05/09 13:09:51;;;;;;;0.75;0.73;;;28.60;34.30;;;;;;4897307;29;20088;-77
2021/05/09 13:12:19;;;;;;;1.17;0.80;;;28.70;32.80;;;;;;4881878;29;20079;-78
2021/05/09 13:14:48;;;;;;;0.60;0.60;;;28.80;31.10;;;;;;4897355;29;20040;-77